Página principal
METAR-TAF:

METAR-TAF

Aeroportos :

Aeroporto Internacional L.F. Wade

Bermudas, Bermudas

latitude: 32-22N, longitude: 064-41W, altura: 6 m

Observação actual do tempo

O boletim foi feito há 33 minutos, às 10:55 UTC
Vento 6 kt de su-sudoeste
Temperatura 26°C
Humidade 89%
Pressão 1022 hPa
Visibilidade 10 km ou mais
Poucas nuvensa uma altura de 1200 ft
Nuvens fragmentadasa uma altura de 25000 ft

METAR: TXKF 071055Z 21006KT 9999 FEW012 BKN250 26/24 Q1022

Hora: 08:28 (11:28 UTC)

Previsão

O boletim foi feito há 5 horas e 56 minutos, às 05:32 UTC
Previsão válida de 07 às 06 UTC a 08 às 06 UTC
Vento 8 kt de su-sudoeste
Visibilidade 10 km ou mais
Poucas nuvensa uma altura de 1500 ft
Nuvens dispersasa uma altura de 30000 ft

TAF: TXKF 070532Z 0706/0806 20008KT 9999 FEW015 SCT300

Observações e previsões do tempo de mais de 4000 aeroportos (mensagens METAR e TAF).

As estações disponíveis são os pontos amarelos e vermelhos sobre o mapa.

Mova o rato sobre o mapa para ver o nome da estação.

Depois clique no ponto para visualizar as observações e previsões meteorológicas.

Para alterar o mapa : clique nos botões verdes com uma cruz preta para aumentar o zoom; no botão verde com uma pitada de zoom; ou nas setas verdes para mapas adjacentes.


METAR-TAF: